Time;durP1;ratioP1;P1;durP2;ratioP2;P2;SDS_P1;SDS_P2;PMS_P1;PMS_P2;Temp;Humidity;BMP_temperature;BMP_pressure;BME280_temperature;BME280_humidity;BME280_pressure;Samples;Min_cycle;Max_cycle;Signal;HPM_P1;HPM_P2
2022/02/09 00:05:04;;;;;;;10.23;2.05;;;;;;;5.33;91.42;100947.02;1630328;86;26025;-80
2022/02/09 00:07:33;;;;;;;9.58;2.87;;;;;;;5.31;91.57;100955.62;1622687;87;28326;-79
2022/02/09 00:09:51;;;;;;;6.92;2.22;;;;;;;5.30;91.67;100952.59;1597438;88;26459;-79
2022/02/09 00:12:23;;;;;;;9.28;2.50;;;;;;;5.26;91.66;100962.36;1620569;87;25389;-79
2022/02/09 00:15:14;;;;;;;9.05;2.65;;;;;;;5.22;91.76;100968.42;1601599;88;26352;-79
2022/02/09 00:17:37;;;;;;;7.50;2.45;;;;;;;5.20;91.99;100971.72;1596884;88;25809;-79
2022/02/09 00:41:48;;;;;;;6.62;3.00;;;;;;;5.11;92.70;101012.39;1623479;87;25948;-79
2022/02/09 01:56:55;;;;;;;12.37;4.22;;;;;;;4.57;93.99;101073.16;1619318;87;26228;-79
2022/02/09 01:59:22;;;;;;;14.23;4.97;;;;;;;4.56;94.45;101067.48;1618897;87;25937;-79
2022/02/09 02:01:48;;;;;;;15.23;4.95;;;;;;;4.56;94.53;101070.98;1624126;87;25955;-79
2022/02/09 02:04:15;;;;;;;12.05;5.22;;;;;;;4.60;95.08;101066.23;1622049;87;25649;-79
2022/02/09 02:06:46;;;;;;;16.32;5.22;;;;;;;4.62;95.25;101076.22;1621759;87;28314;-78
2022/02/09 02:09:13;;;;;;;10.00;4.97;;;;;;;4.65;95.32;101078.13;1620814;86;25972;-79
2022/02/09 02:11:47;;;;;;;11.00;5.22;;;;;;;4.67;95.24;101072.67;1593544;88;25915;-80
2022/02/09 02:14:23;;;;;;;15.25;5.17;;;;;;;4.71;95.26;101071.42;1619617;87;25859;-78
2022/02/09 02:17:05;;;;;;;11.70;5.65;;;;;;;4.73;95.62;101075.28;1596801;88;25875;-79
2022/02/09 02:19:46;;;;;;;17.60;5.97;;;;;;;4.74;95.77;101076.47;1620817;87;27487;-79
2022/02/09 02:27:45;;;;;;;11.90;5.80;;;;;;;4.87;96.44;101098.28;1629737;87;25795;-79
2022/02/09 02:30:18;;;;;;;16.62;7.00;;;;;;;4.89;96.35;101094.99;1592353;88;26601;-80
2022/02/09 02:32:48;;;;;;;14.30;6.08;;;;;;;4.94;96.27;101100.70;1572738;89;28302;-80
2022/02/09 02:40:27;;;;;;;13.35;7.03;;;;;;;5.03;96.14;101100.36;1579038;89;26006;-80
2022/02/09 02:56:44;;;;;;;10.90;6.62;;;;;;;5.12;96.08;101090.24;1628147;85;25508;-79
2022/02/09 03:09:48;;;;;;;16.67;7.42;;;;;;;5.06;95.17;101097.45;1601130;88;26585;-79
2022/02/09 03:14:35;;;;;;;18.90;7.42;;;;;;;5.03;94.99;101103.02;1618612;87;25888;-80
2022/02/09 03:17:00;;;;;;;19.50;8.48;;;;;;;5.01;94.92;101100.52;1624595;87;25845;-80
2022/02/09 03:19:44;;;;;;;24.00;8.05;;;;;;;5.00;94.93;101110.80;1628180;86;26588;-79
2022/02/09 03:22:16;;;;;;;16.23;8.73;;;;;;;4.99;94.80;101107.78;1626253;86;25838;-79
2022/02/09 03:24:51;;;;;;;21.95;9.10;;;;;;;4.96;94.66;101105.39;1627644;86;27467;-80
2022/02/09 03:27:21;;;;;;;15.68;8.35;;;;;;;4.96;94.63;101101.92;1632678;86;25777;-80
2022/02/09 03:43:44;;;;;;;18.32;8.35;;;;;;;4.76;94.73;101108.16;1638411;86;25823;-80
2022/02/09 03:46:15;;;;;;;12.20;6.87;;;;;;;4.73;94.68;101104.48;1596899;88;26762;-79
2022/02/09 03:48:50;;;;;;;18.25;8.78;;;;;;;4.70;94.75;101110.38;1633301;86;25949;-79
2022/02/09 03:56:26;;;;;;;15.20;6.70;;;;;;;4.66;94.58;101133.37;1638435;86;32723;-80
2022/02/09 03:58:41;;;;;;;13.93;5.80;;;;;;;4.62;94.46;101126.15;1635584;86;25961;-81
2022/02/09 04:01:08;;;;;;;13.15;6.45;;;;;;;4.61;94.45;101130.27;1637712;86;26062;-79
2022/02/09 04:03:34;;;;;;;16.10;7.50;;;;;;;4.61;94.44;101136.91;1637480;86;27505;-80
2022/02/09 04:06:00;;;;;;;13.68;6.20;;;;;;;4.60;94.48;101138.71;1638763;86;25944;-80
2022/02/09 04:08:29;;;;;;;24.35;7.50;;;;;;;4.60;94.41;101134.73;1641235;86;25981;-79
2022/02/09 04:11:10;;;;;;;13.25;7.08;;;;;;;4.59;94.37;101133.55;1636599;86;25887;-81
2022/02/09 04:13:36;;;;;;;16.57;7.03;;;;;;;4.58;94.22;101135.36;1632259;86;25948;-78
2022/02/09 04:16:00;;;;;;;16.82;9.08;;;;;;;4.58;94.13;101138.48;1637002;86;27559;-80
2022/02/09 04:37:50;;;;;;;14.70;6.17;;;;;;;4.62;95.36;101141.22;1628020;86;26501;-81
2022/02/09 04:40:08;;;;;;;14.28;6.08;;;;;;;4.63;95.42;101134.95;1626068;86;25872;-79
2022/02/09 04:42:43;;;;;;;12.98;6.62;;;;;;;4.65;95.55;101139.64;1626296;87;27584;-81
2022/02/09 04:50:36;;;;;;;14.90;7.12;;;;;;;4.67;96.02;101141.66;1628421;85;26645;-79
2022/02/09 04:53:24;;;;;;;17.52;6.90;;;;;;;4.66;96.08;101143.47;1626123;86;25952;-81
2022/02/09 04:55:49;;;;;;;15.55;5.55;;;;;;;4.67;96.16;101145.64;1624819;86;28341;-80
2022/02/09 04:58:16;;;;;;;14.03;5.78;;;;;;;4.67;96.25;101151.80;1626701;86;25968;-80
2022/02/09 05:00:46;;;;;;;17.98;7.03;;;;;;;4.66;96.45;101159.91;1627123;86;25801;-80
2022/02/09 05:03:38;;;;;;;10.80;5.47;;;;;;;4.62;96.27;101155.33;1627314;87;26644;-79
2022/02/09 05:24:35;;;;;;;15.28;6.25;;;;;;;4.50;96.37;101157.75;1629601;87;25995;-79
2022/02/09 05:27:01;;;;;;;19.95;8.15;;;;;;;4.46;96.43;101157.67;1622656;86;26249;-79
2022/02/09 05:29:16;;;;;;;20.25;7.20;;;;;;;4.46;96.43;101167.43;1611347;87;26604;-80
2022/02/09 05:31:42;;;;;;;15.48;7.65;;;;;;;4.42;96.32;101157.59;1612346;87;25969;-80
2022/02/09 05:34:09;;;;;;;14.78;7.20;;;;;;;4.39;96.32;101153.86;1605975;87;27195;-79
2022/02/09 05:36:36;;;;;;;14.80;7.55;;;;;;;4.38;96.22;101147.38;1607824;87;26223;-79
2022/02/09 05:39:03;;;;;;;14.23;6.40;;;;;;;4.37;96.19;101157.61;1608332;87;25943;-79
2022/02/09 05:41:31;;;;;;;16.27;7.50;;;;;;;4.34;96.38;101157.39;1610558;87;26010;-80
2022/02/09 05:43:57;;;;;;;16.90;8.08;;;;;;;4.33;96.29;101162.84;1607403;87;26026;-80
2022/02/09 05:49:27;;;;;;;13.40;5.85;;;;;;;4.28;96.36;101166.36;1608777;87;25982;-79
2022/02/09 05:51:39;;;;;;;15.40;6.70;;;;;;;4.24;96.46;101170.25;1564884;89;25821;-79
2022/02/09 05:56:41;;;;;;;20.25;9.10;;;;;;;4.20;96.41;101184.75;1607666;87;25574;-79
2022/02/09 05:59:26;;;;;;;18.23;8.15;;;;;;;4.19;96.41;101189.72;1602785;87;28315;-79
2022/02/09 06:01:34;;;;;;;15.08;6.35;;;;;;;4.16;96.37;101194.79;1600775;87;25945;-81
2022/02/09 06:04:01;;;;;;;11.88;6.22;;;;;;;4.15;96.29;101198.39;1612063;87;25905;-78
2022/02/09 06:06:27;;;;;;;15.18;6.92;;;;;;;4.13;96.26;101200.84;1611632;87;26454;-80
2022/02/09 06:08:55;;;;;;;13.65;7.65;;;;;;;4.09;96.32;101195.42;1609868;87;25809;-79
2022/02/09 06:11:29;;;;;;;16.12;6.83;;;;;;;4.08;96.28;101190.63;1609945;87;27484;-80
2022/02/09 06:14:51;;;;;;;;;;;;;;;4.06;96.16;101193.91;1613507;87;25869;-79
2022/02/09 06:21:50;;;;;;;19.73;8.35;;;;;;;3.98;96.28;101181.77;1614374;87;25746;-79
2022/02/09 06:24:16;;;;;;;15.30;6.70;;;;;;;3.96;96.37;101188.19;1609916;87;27507;-80
2022/02/09 06:26:42;;;;;;;15.70;6.95;;;;;;;3.93;96.30;101189.28;1616864;87;26644;-80
2022/02/09 06:29:09;;;;;;;14.15;7.87;;;;;;;3.92;96.31;101190.23;1624303;85;25893;-81
2022/02/09 06:31:37;;;;;;;17.10;6.35;;;;;;;3.93;96.42;101198.05;1625869;87;26637;-80
2022/02/09 06:34:06;;;;;;;21.55;8.18;;;;;;;3.92;96.36;101192.89;1627585;87;25996;-79
2022/02/09 06:36:41;;;;;;;16.17;7.50;;;;;;;3.93;96.31;101196.39;1624817;87;28996;-79
2022/02/09 06:39:05;;;;;;;18.82;7.90;;;;;;;3.90;96.34;101203.63;1625541;86;25908;-80
2022/02/09 06:41:31;;;;;;;16.87;7.30;;;;;;;3.90;96.25;101212.05;1625837;87;25884;-80
2022/02/09 06:43:57;;;;;;;20.62;7.53;;;;;;;3.88;96.21;101218.82;1623503;87;25813;-80
2022/02/09 06:46:24;;;;;;;12.85;6.55;;;;;;;3.87;96.29;101217.63;1629305;86;26087;-79
2022/02/09 06:48:51;;;;;;;14.00;7.58;;;;;;;3.87;96.38;101218.45;1628919;87;27652;-80
2022/02/09 06:51:20;;;;;;;26.30;9.88;;;;;;;3.88;96.38;101217.49;1627721;86;26155;-79
2022/02/09 06:54:01;;;;;;;16.32;7.78;;;;;;;3.88;96.37;101211.34;1628207;87;25634;-80
2022/02/09 06:56:36;;;;;;;16.27;7.70;;;;;;;3.90;96.43;101212.05;1624757;87;25773;-80
2022/02/09 06:58:58;;;;;;;20.55;8.25;;;;;;;3.93;96.44;101213.14;1626151;87;26034;-79
2022/02/09 07:01:14;;;;;;;23.90;8.50;;;;;;;3.96;96.38;101210.72;1623350;87;27469;-80
2022/02/09 07:03:41;;;;;;;17.48;8.70;;;;;;;3.93;96.35;101203.35;1625409;86;25869;-80
2022/02/09 07:06:07;;;;;;;21.52;8.78;;;;;;;3.95;96.49;101203.24;1625989;86;25835;-80
2022/02/09 07:08:33;;;;;;;16.62;7.97;;;;;;;3.97;96.49;101206.60;1630483;87;25835;-80
2022/02/09 07:11:00;;;;;;;19.75;7.83;;;;;;;4.00;96.47;101212.14;1626185;87;25946;-79
2022/02/09 07:13:26;;;;;;;20.68;8.28;;;;;;;4.02;96.53;101210.19;1631616;87;27487;-80
2022/02/09 07:15:54;;;;;;;21.15;9.33;;;;;;;4.02;96.50;101221.61;1634464;85;25861;-80
2022/02/09 07:18:23;;;;;;;28.30;9.03;;;;;;;4.04;96.62;101221.03;1625582;86;26547;-79
2022/02/09 07:23:32;;;;;;;19.27;9.48;;;;;;;4.11;97.10;101222.64;1593095;88;25944;-79
2022/02/09 07:28:28;;;;;;;19.35;8.20;;;;;;;4.22;97.62;101219.92;1628982;85;25738;-81
2022/02/09 07:30:54;;;;;;;14.38;8.05;;;;;;;4.27;97.57;101221.23;1583003;88;25711;-79
2022/02/09 07:33:20;;;;;;;19.77;8.15;;;;;;;4.33;97.71;101217.20;1579647;89;25855;-79
2022/02/09 07:35:48;;;;;;;14.10;8.50;;;;;;;4.38;97.63;101225.13;1579082;89;25982;-79
2022/02/09 07:38:14;;;;;;;18.40;9.43;;;;;;;4.43;97.68;101222.06;1595265;88;27563;-80
2022/02/09 07:40:42;;;;;;;18.65;9.23;;;;;;;4.47;97.66;101224.83;1605491;88;26448;-79
2022/02/09 07:43:17;;;;;;;18.50;9.78;;;;;;;4.53;97.70;101222.45;1604422;88;25887;-79
2022/02/09 07:45:58;;;;;;;23.98;10.68;;;;;;;4.59;97.80;101228.58;1602813;88;25885;-80
2022/02/09 07:48:37;;;;;;;18.30;11.28;;;;;;;4.66;97.85;101223.08;1567449;90;25571;-80
2022/02/09 07:51:14;;;;;;;33.63;11.28;;;;;;;4.74;97.94;101222.42;1564494;90;27509;-80
2022/02/09 07:53:37;;;;;;;20.68;11.03;;;;;;;4.81;97.97;101213.44;1575177;89;26772;-80
2022/02/09 07:55:56;;;;;;;21.33;10.20;;;;;;;4.88;97.93;101213.23;1607140;88;25599;-80
2022/02/09 07:58:23;;;;;;;22.55;12.03;;;;;;;4.95;98.00;101221.01;1604956;87;26198;-79
2022/02/09 08:00:49;;;;;;;28.02;14.73;;;;;;;5.02;97.99;101221.67;1605405;88;25622;-79
2022/02/09 08:03:15;;;;;;;62.58;29.98;;;;;;;5.08;98.00;101222.94;1592769;88;28394;-79
2022/02/09 08:05:41;;;;;;;54.63;29.85;;;;;;;5.14;98.02;101231.20;1605783;88;26274;-80
2022/02/09 08:08:07;;;;;;;59.00;31.40;;;;;;;5.20;98.00;101231.97;1586303;87;26918;-79
2022/02/09 08:10:46;;;;;;;25.20;15.20;;;;;;;5.27;98.03;101237.58;1604705;88;25883;-78
2022/02/09 08:26:50;;;;;;;19.07;10.15;;;;;;;5.59;97.95;101229.36;1604423;88;26564;-79
2022/02/09 08:29:24;;;;;;;15.15;8.53;;;;;;;5.64;97.95;101221.34;1601208;87;27733;-78
2022/02/09 08:32:35;;;;;;;14.90;8.45;;;;;;;5.69;97.91;101223.06;1614759;87;25844;-79
2022/02/09 08:34:16;;;;;;;17.37;8.03;;;;;;;5.75;97.93;101219.84;1588882;88;25818;-78
2022/02/09 08:36:43;;;;;;;16.40;7.30;;;;;;;5.82;97.98;101210.81;1602607;88;25940;-78
2022/02/09 08:39:09;;;;;;;16.75;7.78;;;;;;;5.89;97.99;101207.98;1595102;88;26458;-78
2022/02/09 08:41:36;;;;;;;17.17;7.58;;;;;;;5.94;97.92;101206.59;1604643;88;27507;-79
2022/02/09 08:44:03;;;;;;;15.30;8.58;;;;;;;5.98;97.70;101197.34;1620826;87;25852;-79
2022/02/09 08:46:29;;;;;;;15.48;7.65;;;;;;;6.04;97.76;101197.25;1603182;88;25373;-78
2022/02/09 08:48:56;;;;;;;17.65;7.97;;;;;;;6.10;97.91;101201.98;1601149;88;25920;-79
2022/02/09 08:51:22;;;;;;;16.73;7.50;;;;;;;6.16;97.96;101214.22;1617159;87;26380;-79
2022/02/09 08:53:49;;;;;;;15.48;8.48;;;;;;;6.24;98.08;101203.70;1596617;88;27484;-79
2022/02/09 08:56:15;;;;;;;38.65;25.15;;;;;;;6.31;98.19;101198.64;1621108;87;25827;-78
2022/02/09 08:58:43;;;;;;;40.40;25.55;;;;;;;6.40;98.24;101195.60;1608969;88;26579;-79
2022/02/09 09:01:22;;;;;;;109.42;51.40;;;;;;;6.49;98.43;101186.27;1606389;88;26324;-78
2022/02/09 09:03:49;;;;;;;138.68;61.50;;;;;;;6.57;98.23;101183.70;1574529;89;25818;-79
2022/02/09 09:06:16;;;;;;;128.02;54.98;;;;;;;6.61;97.98;101178.43;1621008;87;27569;-78
2022/02/09 09:09:04;;;;;;;44.08;27.15;;;;;;;6.63;97.83;101179.12;1621273;87;25980;-79
2022/02/09 10:01:04;;;;;;;18.23;12.28;;;;;;;7.21;96.80;101177.44;1621425;87;27511;-79
2022/02/09 10:02:50;;;;;;;17.45;11.95;;;;;;;7.24;96.26;101173.16;1631198;87;26409;-78
2022/02/09 10:34:02;;;;;;;12.98;8.40;;;;;;;7.27;97.32;101160.36;1630533;86;25159;-79
2022/02/09 10:36:29;;;;;;;14.35;10.15;;;;;;;7.27;97.63;101146.22;1628453;86;26642;-78
2022/02/09 10:39:10;;;;;;;13.95;8.65;;;;;;;7.28;97.71;101149.21;1625690;86;26640;-78
2022/02/09 10:45:03;;;;;;;14.80;7.92;;;;;;;7.30;97.78;101150.74;1628008;86;25854;-78
2022/02/09 10:47:28;;;;;;;11.35;7.30;;;;;;;7.32;97.84;101150.09;1593512;88;26027;-79
2022/02/09 10:50:23;;;;;;;11.22;7.15;;;;;;;7.34;97.93;101145.94;1622406;87;26060;-79
2022/02/09 10:52:49;;;;;;;31.80;20.68;;;;;;;7.31;97.77;101149.77;1618819;87;25859;-79
2022/02/09 10:55:43;;;;;;;15.58;9.38;;;;;;;7.31;97.83;101146.26;1630835;85;28288;-79
2022/02/09 10:58:14;;;;;;;18.15;10.70;;;;;;;7.31;97.78;101145.77;1629749;85;26192;-78
2022/02/09 11:00:46;;;;;;;17.23;9.20;;;;;;;7.32;98.03;101141.25;1630093;86;25809;-79
2022/02/09 11:03:21;;;;;;;31.17;16.40;;;;;;;7.32;97.97;101131.44;1597800;88;25778;-78
2022/02/09 11:05:51;;;;;;;45.25;22.45;;;;;;;7.34;98.09;101136.12;1574016;89;25841;-78
2022/02/09 11:08:19;;;;;;;44.58;21.77;;;;;;;7.35;98.22;101124.48;1599009;86;26895;-78
2022/02/09 11:10:50;;;;;;;127.55;53.78;;;;;;;7.36;98.35;101126.14;1614835;87;25846;-79
2022/02/09 11:13:14;;;;;;;81.80;37.67;;;;;;;7.37;98.46;101125.17;1630834;86;25941;-78
2022/02/09 11:15:47;;;;;;;41.83;27.07;;;;;;;7.40;98.69;101125.36;1628584;87;25976;-78
2022/02/09 11:18:16;;;;;;;21.57;12.07;;;;;;;7.42;98.89;101120.20;1631923;85;25686;-78
2022/02/09 11:21:03;;;;;;;15.43;9.35;;;;;;;7.42;99.09;101111.38;1627430;86;27498;-78
2022/02/09 11:23:41;;;;;;;12.53;8.55;;;;;;;7.43;99.29;101107.71;1623742;86;26050;-78
2022/02/09 11:26:55;;;;;;;16.75;9.95;;;;;;;7.43;99.54;101109.89;1595196;88;25993;-78
2022/02/09 11:32:16;;;;;;;13.53;9.50;;;;;;;7.50;100.00;101108.78;1605357;88;25941;-78
2022/02/09 11:40:53;;;;;;;15.75;10.00;;;;;;;7.54;100.00;101112.80;1618107;87;25915;-79
2022/02/09 11:43:35;;;;;;;19.82;12.05;;;;;;;7.57;100.00;101107.98;1615736;87;26607;-79
2022/02/09 11:46:30;;;;;;;15.23;10.85;;;;;;;7.57;100.00;101099.99;1621112;87;25974;-79
2022/02/09 12:11:36;;;;;;;22.70;14.95;;;;;;;7.91;100.00;101089.41;1610396;88;25845;-78
2022/02/09 12:14:22;;;;;;;22.42;13.28;;;;;;;7.91;100.00;101092.08;1609251;88;25906;-79
2022/02/09 12:17:02;;;;;;;22.15;15.83;;;;;;;7.90;100.00;101083.72;1619415;87;27471;-77
2022/02/09 12:19:43;;;;;;;26.77;16.37;;;;;;;7.90;100.00;101085.06;1600658;88;26127;-78
2022/02/09 12:22:11;;;;;;;22.75;16.27;;;;;;;7.92;100.00;101093.73;1622123;87;25878;-77
2022/02/09 12:24:34;;;;;;;23.47;16.97;;;;;;;7.94;100.00;101079.75;1575639;89;26600;-78
2022/02/09 12:27:08;;;;;;;25.85;17.45;;;;;;;7.95;100.00;101079.25;1600052;88;25643;-79
2022/02/09 12:29:38;;;;;;;25.00;18.00;;;;;;;7.94;100.00;101078.90;1580621;89;27564;-78
2022/02/09 12:32:23;;;;;;;26.37;17.70;;;;;;;7.92;100.00;101073.73;1618652;87;26150;-77
2022/02/09 12:35:04;;;;;;;22.25;15.35;;;;;;;7.92;100.00;101072.40;1629534;87;26549;-77
2022/02/09 12:37:32;;;;;;;;;;;;;;;7.92;100.00;101072.89;1631970;87;25942;-78
2022/02/09 12:40:10;;;;;;;24.02;16.70;;;;;;;7.92;100.00;101075.55;1627278;87;25817;-78
2022/02/09 12:42:43;;;;;;;25.10;17.87;;;;;;;7.90;100.00;101074.39;1625749;86;28414;-78
2022/02/09 12:45:17;;;;;;;24.30;18.40;;;;;;;7.89;100.00;101070.03;1623226;85;25379;-77
2022/02/09 12:47:57;;;;;;;50.28;35.13;;;;;;;7.91;100.00;101068.08;1629888;86;26610;-78
2022/02/09 12:50:33;;;;;;;27.70;21.25;;;;;;;7.91;100.00;101068.56;1632313;85;26511;-78
2022/02/09 12:53:02;;;;;;;30.60;23.67;;;;;;;7.91;100.00;101070.74;1630597;86;26582;-78
2022/02/09 12:55:37;;;;;;;25.45;19.15;;;;;;;7.92;100.00;101067.55;1635284;85;27496;-77
2022/02/09 12:58:08;;;;;;;32.30;21.77;;;;;;;7.92;100.00;101072.40;1624019;86;25845;-78
2022/02/09 13:00:44;;;;;;;34.30;21.95;;;;;;;7.92;100.00;101077.73;1626192;86;25557;-78
2022/02/09 13:03:11;;;;;;;29.20;19.35;;;;;;;7.92;100.00;101072.40;1622320;86;44061;-78
2022/02/09 13:05:44;;;;;;;28.57;19.37;;;;;;;7.95;100.00;101079.25;1625717;86;26605;-78
2022/02/09 13:08:11;;;;;;;28.95;19.12;;;;;;;7.95;100.00;101069.92;1624356;86;27492;-78
2022/02/09 13:10:39;;;;;;;70.78;48.95;;;;;;;7.95;100.00;101061.42;1627133;86;25897;-77
2022/02/09 13:13:22;;;;;;;42.20;32.60;;;;;;;7.96;100.00;101066.23;1633119;86;26155;-78
2022/02/09 13:15:52;;;;;;;27.32;21.85;;;;;;;7.97;100.00;101066.59;1630439;86;26585;-78
2022/02/09 13:22:27;;;;;;;26.52;21.10;;;;;;;7.98;100.00;101058.91;1626553;84;27218;-78
2022/02/09 14:07:15;;;;;;;23.18;18.05;;;;;;;8.08;100.00;101043.16;1595404;88;25916;-77
2022/02/09 14:12:32;;;;;;;22.27;17.92;;;;;;;8.09;100.00;101042.14;1621844;87;25879;-78
2022/02/09 14:48:02;;;;;;;21.48;16.95;;;;;;;8.18;100.00;101035.01;1673635;84;26610;-78
2022/02/09 14:55:45;;;;;;;21.95;17.55;;;;;;;8.19;100.00;101038.84;1632200;86;26536;-78
2022/02/09 14:58:12;;;;;;;23.75;19.52;;;;;;;8.20;100.00;101045.02;1620955;87;28841;-77
2022/02/09 15:00:58;;;;;;;16.85;13.38;;;;;;;8.15;100.00;101046.83;1630788;86;26587;-77
2022/02/09 15:08:59;;;;;;;19.73;15.78;;;;;;;8.06;100.00;101045.64;1634712;86;26089;-77
2022/02/09 15:16:35;;;;;;;18.20;12.82;;;;;;;8.01;100.00;101058.12;1632850;86;25843;-78
2022/02/09 15:24:12;;;;;;;17.55;13.18;;;;;;;7.97;100.00;101058.59;1607750;88;27659;-77
2022/02/09 15:26:38;;;;;;;20.08;14.73;;;;;;;7.97;100.00;101061.26;1612521;88;25999;-77
2022/02/09 15:29:05;;;;;;;22.00;15.28;;;;;;;7.95;100.00;101058.76;1589509;90;25817;-77
2022/02/09 15:31:40;;;;;;;23.85;16.73;;;;;;;7.94;100.00;101058.89;1622689;87;26566;-77
2022/02/09 15:34:13;;;;;;;;;;;;;;;7.92;100.00;101057.73;1583269;88;25874;-77
2022/02/09 15:36:50;;;;;;;29.12;22.62;;;;;;;7.93;100.00;101057.23;1628279;86;28280;-78
2022/02/09 15:39:04;;;;;;;39.70;31.93;;;;;;;7.90;100.00;101057.54;1592830;88;26654;-78
2022/02/09 15:41:41;;;;;;;30.12;23.00;;;;;;;7.91;100.00;101057.89;1627454;86;25353;-78
2022/02/09 15:56:14;;;;;;;31.90;22.87;;;;;;;7.92;100.00;101055.55;1622595;87;26434;-77
2022/02/09 15:58:09;;;;;;;19.87;14.10;;;;;;;7.96;100.00;101045.74;1616861;88;26354;-78
2022/02/09 16:10:39;;;;;;;20.27;13.55;;;;;;;7.96;100.00;101045.74;1618533;87;26555;-78
2022/02/09 16:23:31;;;;;;;19.92;13.05;;;;;;;7.95;100.00;101040.09;1623202;86;25893;-77
2022/02/09 16:26:13;;;;;;;25.82;14.98;;;;;;;7.95;100.00;101041.91;1606862;87;26569;-77
2022/02/09 16:34:30;;;;;;;82.53;46.08;;;;;;;7.95;100.00;101052.09;1623746;86;25829;-77
2022/02/09 16:37:10;;;;;;;30.57;21.73;;;;;;;7.95;100.00;101039.24;1623100;86;26775;-78
2022/02/09 16:44:39;;;;;;;19.15;14.58;;;;;;;7.93;100.00;101038.56;1620629;87;26020;-77
2022/02/09 16:50:06;;;;;;;20.55;13.62;;;;;;;7.96;100.00;101049.74;1621249;86;25826;-78
2022/02/09 17:08:38;;;;;;;30.80;20.62;;;;;;;7.90;98.85;101045.54;1607805;86;27479;-78
2022/02/09 17:19:03;;;;;;;24.57;16.95;;;;;;;7.90;98.39;101028.20;1620688;86;26618;-77
2022/02/09 17:21:32;;;;;;;25.20;16.60;;;;;;;7.89;98.28;101026.55;1620001;84;27499;-78
2022/02/09 17:24:03;;;;;;;22.27;15.15;;;;;;;7.89;98.08;101020.69;1617825;86;25946;-78
2022/02/09 17:26:31;;;;;;;25.45;16.80;;;;;;;7.89;98.01;101028.69;1617370;88;26673;-77
2022/02/09 17:29:03;;;;;;;18.87;13.22;;;;;;;7.89;98.11;101027.36;1622373;86;26564;-77
2022/02/09 17:31:49;;;;;;;20.25;13.83;;;;;;;7.90;97.91;101033.05;1623980;86;26146;-78
2022/02/09 17:39:25;;;;;;;21.90;13.70;;;;;;;7.90;97.31;101025.05;1622309;86;25945;-77
2022/02/09 17:55:29;;;;;;;21.05;13.30;;;;;;;7.94;96.57;101025.06;1619319;86;26584;-77
2022/02/09 17:57:53;;;;;;;20.45;13.48;;;;;;;7.96;96.40;101027.56;1617992;86;25978;-77
2022/02/09 18:00:17;;;;;;;19.82;13.45;;;;;;;7.97;96.06;101029.25;1620411;86;28139;-77
2022/02/09 18:02:50;;;;;;;22.07;13.58;;;;;;;7.96;95.96;101024.41;1624335;86;25883;-77
2022/02/09 18:08:16;;;;;;;17.02;12.73;;;;;;;7.98;95.66;101024.23;1622490;86;26220;-78
2022/02/09 18:13:59;;;;;;;16.57;11.33;;;;;;;7.97;94.57;101024.75;1622540;86;28305;-78
2022/02/09 18:16:01;;;;;;;22.00;12.95;;;;;;;7.98;94.12;101022.41;1587875;88;26648;-78
2022/02/09 18:29:28;;;;;;;18.32;11.68;;;;;;;8.01;94.09;101026.59;1626249;86;26549;-78
2022/02/09 18:48:01;;;;;;;14.70;10.53;;;;;;;7.96;90.87;101009.73;1579616;89;25843;-77
2022/02/09 19:04:46;;;;;;;15.50;10.28;;;;;;;8.05;90.62;101010.60;1626543;86;25931;-78
2022/02/09 19:15:08;;;;;;;11.78;7.92;;;;;;;8.04;91.27;101018.28;1545629;90;26591;-77
2022/02/09 19:17:34;;;;;;;15.35;10.10;;;;;;;8.02;90.37;101017.09;1542761;90;25987;-78
2022/02/09 19:26:26;;;;;;;13.75;8.80;;;;;;;8.01;90.92;101018.59;1623234;88;26640;-77
2022/02/09 19:42:19;;;;;;;15.50;9.70;;;;;;;7.94;90.56;101039.73;1617800;86;26013;-78
2022/02/09 19:44:49;;;;;;;13.20;8.43;;;;;;;7.93;90.12;101031.90;1621925;88;26243;-77
2022/02/09 19:49:02;;;;;;;14.73;9.50;;;;;;;7.90;89.82;101034.88;1628704;86;25872;-77
2022/02/09 19:51:39;;;;;;;17.07;9.80;;;;;;;7.89;90.15;101044.70;1624230;86;25859;-78
2022/02/09 19:54:10;;;;;;;15.15;9.45;;;;;;;7.89;89.62;101028.69;1624187;86;25912;-78
2022/02/09 19:56:30;;;;;;;16.93;9.70;;;;;;;7.89;90.04;101039.36;1618249;86;26060;-78
2022/02/09 19:59:00;;;;;;;15.23;9.25;;;;;;;7.88;89.83;101043.04;1629869;86;28753;-77
2022/02/09 20:01:32;;;;;;;13.72;8.45;;;;;;;7.87;89.76;101054.69;1628544;86;25819;-78
2022/02/09 20:03:53;;;;;;;17.75;10.72;;;;;;;7.87;89.83;101052.02;1622277;86;26545;-78
2022/02/09 20:06:20;;;;;;;16.52;9.80;;;;;;;7.87;89.97;101047.20;1621688;88;26544;-78
2022/02/09 20:09:05;;;;;;;16.07;9.68;;;;;;;7.86;89.81;101046.86;1620062;88;26177;-78
2022/02/09 20:11:32;;;;;;;14.58;8.88;;;;;;;7.86;89.82;101046.86;1619989;88;27528;-79
2022/02/09 20:13:59;;;;;;;14.87;9.68;;;;;;;7.85;89.88;101051.34;1618252;87;25739;-77
2022/02/09 20:16:25;;;;;;;15.30;9.33;;;;;;;7.86;89.79;101048.19;1617567;88;26221;-78
2022/02/09 20:18:54;;;;;;;14.43;9.25;;;;;;;7.84;90.06;101056.36;1586490;88;26557;-77
2022/02/09 20:21:23;;;;;;;19.52;10.65;;;;;;;7.84;90.06;101053.69;1619820;86;26512;-78
2022/02/09 20:23:51;;;;;;;12.55;7.85;;;;;;;7.85;90.01;101054.53;1620729;86;27570;-79
2022/02/09 20:26:20;;;;;;;12.15;8.10;;;;;;;7.83;90.05;101060.00;1624018;86;25748;-78
2022/02/09 20:28:54;;;;;;;12.75;8.95;;;;;;;7.83;90.26;101061.86;1618572;87;25898;-78
2022/02/09 20:31:19;;;;;;;15.13;9.20;;;;;;;7.81;90.18;101064.66;1617658;88;26638;-78
2022/02/09 20:33:49;;;;;;;10.85;7.75;;;;;;;7.82;90.36;101057.02;1616092;88;25368;-78
2022/02/09 20:36:13;;;;;;;13.98;9.00;;;;;;;7.80;90.21;101058.48;1621473;87;27593;-79
2022/02/09 20:38:40;;;;;;;15.08;9.33;;;;;;;7.79;90.32;101059.49;1619705;88;25794;-78
2022/02/09 20:41:09;;;;;;;15.25;8.38;;;;;;;7.79;90.45;101055.98;1619531;88;25390;-78
2022/02/09 20:43:47;;;;;;;12.18;8.75;;;;;;;7.77;90.42;101054.81;1614330;88;26574;-78
2022/02/09 20:46:07;;;;;;;16.37;8.88;;;;;;;7.76;90.63;101053.13;1617284;88;25921;-78
2022/02/09 20:48:34;;;;;;;14.20;9.18;;;;;;;7.76;90.69;101058.46;1619930;88;27646;-78
2022/02/09 20:51:01;;;;;;;14.45;7.92;;;;;;;7.75;90.66;101058.14;1620821;88;26133;-78
2022/02/09 20:53:29;;;;;;;15.35;9.28;;;;;;;7.75;90.64;101057.30;1589651;88;25873;-78
2022/02/09 20:55:56;;;;;;;16.52;10.32;;;;;;;7.73;90.79;101054.80;1596196;88;25868;-78
2022/02/09 20:58:23;;;;;;;14.45;9.00;;;;;;;7.73;90.93;101056.62;1607448;87;25957;-80
2022/02/09 21:01:01;;;;;;;14.75;8.55;;;;;;;7.71;90.75;101048.78;1619709;86;27733;-78
2022/02/09 21:06:21;;;;;;;13.62;9.78;;;;;;;7.68;91.06;101049.09;1614952;88;26503;-78
2022/02/09 21:16:37;;;;;;;17.23;8.68;;;;;;;7.68;91.29;101050.91;1617807;88;26315;-79
2022/02/09 21:53:27;;;;;;;16.00;10.25;;;;;;;7.59;91.90;101055.35;1614922;88;27556;-79
2022/02/09 21:58:07;;;;;;;18.30;11.12;;;;;;;7.57;92.03;101050.67;1627646;88;25758;-78
2022/02/09 22:19:45;;;;;;;16.80;10.93;;;;;;;7.49;93.05;101035.97;1627728;88;27492;-79
2022/02/09 22:22:14;;;;;;;14.35;10.18;;;;;;;7.48;93.14;101038.30;1627043;88;25931;-78
2022/02/09 22:56:50;;;;;;;16.45;10.10;;;;;;;7.41;94.22;101025.25;1627716;88;25794;-78
2022/02/09 22:59:26;;;;;;;16.70;10.48;;;;;;;7.41;94.21;101025.74;1627617;88;26995;-79
2022/02/09 23:01:53;;;;;;;18.62;10.18;;;;;;;7.41;94.27;101021.26;1624322;86;26301;-79
2022/02/09 23:06:59;;;;;;;17.02;10.70;;;;;;;7.41;94.32;101031.92;1621963;88;26040;-79
2022/02/09 23:12:11;;;;;;;17.10;11.20;;;;;;;7.40;94.45;101025.42;1593914;88;27539;-79
2022/02/09 23:17:30;;;;;;;11.88;8.13;;;;;;;7.41;94.48;101023.08;1590887;90;25853;-81
